KMKT/MKT METAR and TAF weather

Enter ICAO airport designator
Station Type Date Time Source
KMKT METAR 2019/10/22 15:56 UTC NOAA

KMKT 221556Z AUTO 29023G35KT 10SM OVC016 04/02 A2957 RMK AO2 PK WND 28038/1532 SLP022 T00440017


Station Type Date Time Source
KMKT Decoded METAR 2019/10/22 15:56 UTC NOAA

Mankato, Mankato Regional Airport, MN, United States (KMKT) 44-13N 093-55W
Oct 22, 2019 - 11:56 AM EDT / 2019.10.22 1556 UTC
Wind: from the WNW (290 degrees) at 26 MPH (23 KT) gusting to 40 MPH (35 KT):0
Visibility: 10 mile(s):0
Sky conditions: overcast
Temperature: 39.9 F (4.4 C)
Dew Point: 35.1 F (1.7 C)
Relative Humidity: 82%
Pressure (altimeter): 29.57 in. Hg (1001 hPa)
ob: KMKT 221556Z AUTO 29023G35KT 10SM OVC016 04/02 A2957 RMK AO2 PK WND 28038/1532 SLP022 T00440017
cycle: 16

Station Type Date Time Source
KMKT TAF 2019/10/22 12:27 UTC NOAA

TAF KMKT 221126Z 2212/2312 29028G42KT P6SM VCSH OVC012
FM221600 29025G37KT P6SM BKN017
FM221800 29026G36KT P6SM BKN024
FM222000 28026G35KT P6SM BKN035
FM230100 29015G25KT P6SM SCT080
FM230800 26007KT P6SM FEW250

Example: see airport list